Latest Weather Observations for Nullo Mountain

IDN60801

Issued at 1:33 pm EDT Monday 29 November 2021 (issued every 10 minutes, with the page automatically refreshed every 10 minutes)

About weather observations | Map of weather stations | Latest weather observations for NSW | Other Formats
Station Details ID: 062100 Name: NULLO MOUNTAIN AWS Lat: -32.72 Lon: 150.23 Height: 1130.0 m
Data from the previous 72 hours. | See also: Recent months at Nullo Mountain
Date/Time
EDT
Temp
°C
App
Temp
°C
Dew
Point
°C
Rel
Hum
%
Delta-T
°C
Wind Press
QNH
hPa
Press
MSL
hPa
Rain since
9am
mm
Dir  Spd
km/h
Gust
km/h
Spd
kts
Gust
kts
29/01:30pm 13.0 13.2 13.0 100 0.0 ENE 4 6 2 3 - - 1.0
29/01:00pm 12.5 12.5 12.5 100 0.0 ENE 4 7 2 4 - - 0.4
29/12:30pm 11.7 10.5 11.7 100 0.0 E 9 11 5 6 - - 0.0
29/12:00pm 11.6 11.3 11.6 100 0.0 ESE 4 7 2 4 - - 0.0
29/11:30am 11.9 11.4 11.9 100 0.0 E 6 9 3 5 - - 0.0
29/11:00am 12.2 11.6 12.2 100 0.0 E 7 13 4 7 - - 0.0
29/10:30am 11.2 9.9 11.2 100 0.0 E 9 13 5 7 - - 0.0
29/10:00am 11.3 10.0 11.3 100 0.0 ESE 9 13 5 7 - - 0.0
29/09:30am 10.5 9.4 10.5 100 0.0 E 7 17 4 9 - - 0.0
29/09:00am 10.6 8.7 10.6 100 0.0 E 11 17 6 9 - - 0.6
29/08:30am 10.1 7.3 10.1 100 0.0 E 15 20 8 11 - - 0.6
29/08:00am 10.0 7.6 10.0 100 0.0 E 13 20 7 11 - - 0.6
29/07:30am 9.5 6.9 9.5 100 0.0 E 13 20 7 11 - - 0.6
29/07:00am 8.9 5.4 8.9 100 0.0 E 17 22 9 12 - - 0.6
29/06:30am 8.7 6.7 8.7 100 0.0 E 9 17 5 9 - - 0.6
29/06:00am 8.1 6.5 8.1 100 0.0 E 6 9 3 5 - - 0.6
29/05:30am 7.9 5.3 7.9 100 0.0 E 11 17 6 9 - - 0.6
29/05:00am 7.6 5.0 7.6 100 0.0 E 11 19 6 10 - - 0.6
29/04:30am 7.6 4.2 7.6 100 0.0 E 15 19 8 10 - - 0.6
29/04:00am 7.3 3.4 7.3 100 0.0 E 17 20 9 11 - - 0.6
29/03:30am 7.0 3.5 7.0 100 0.0 ESE 15 22 8 12 - - 0.6
29/03:00am 7.1 3.2 7.1 100 0.0 ESE 17 24 9 13 - - 0.6
29/02:30am 7.2 2.9 7.2 100 0.0 ESE 19 26 10 14 - - 0.6
29/02:00am 7.1 3.6 7.1 100 0.0 ESE 15 24 8 13 - - 0.6
29/01:30am 7.1 2.8 7.1 100 0.0 ESE 19 24 10 13 - - 0.6
29/01:00am 7.0 2.1 7.0 100 0.0 ESE 22 33 12 18 - - 0.6
29/12:30am 7.1 2.8 7.1 100 0.0 ESE 19 28 10 15 - - 0.6
29/12:00am 7.3 3.4 7.3 100 0.0 ESE 17 26 9 14 - - 0.4
 
Date/Time
EDT
Temp
°C
App
Temp
°C
Dew
Point
°C
Rel
Hum
%
Delta-T
°C
Wind Press
QNH
hPa
Press
MSL
hPa
Rain since
9am
mm
Dir  Spd
km/h
Gust
km/h
Spd
kts
Gust
kts
28/11:30pm 7.6 2.9 7.6 100 0.0 ESE 22 32 12 17 - - 0.4
28/11:00pm 7.8 3.7 7.8 100 0.0 ESE 19 32 10 17 - - 0.4
28/10:30pm 8.0 3.0 8.0 100 0.0 ESE 24 33 13 18 - - 0.4
28/10:00pm 8.5 4.4 8.5 100 0.0 ESE 20 28 11 15 - - 0.2
28/09:30pm 8.5 4.4 8.5 100 0.0 ESE 20 26 11 14 - - 0.2
28/09:00pm 8.7 5.2 8.7 100 0.0 ESE 17 24 9 13 - - 0.2
28/08:30pm 8.8 4.4 8.8 100 0.0 ESE 22 30 12 16 - - 0.2
28/08:00pm 8.9 4.5 8.9 100 0.0 ESE 22 30 12 16 - - 0.2
28/07:30pm 8.9 5.1 8.9 100 0.0 ESE 19 33 10 18 - - 0.2
28/07:00pm 9.3 6.3 9.3 100 0.0 ESE 15 20 8 11 - - 0.2
28/06:30pm 9.6 7.8 9.6 100 0.0 ESE 9 17 5 9 - - 0.2
28/06:00pm 9.5 4.5 9.5 100 0.0 ESE 26 35 14 19 - - 0.2
28/05:30pm 9.5 5.8 9.5 100 0.0 ESE 19 28 10 15 - - 0.0
28/05:00pm 9.8 7.7 9.8 100 0.0 E 11 20 6 11 - - 0.0
28/04:30pm 10.4 8.5 10.4 100 0.0 E 11 19 6 10 - - 0.0
28/04:00pm 11.2 8.0 11.2 100 0.0 ESE 19 24 10 13 - - 0.0
28/03:30pm 11.2 7.8 11.2 100 0.0 ESE 20 28 11 15 - - 0.0
28/03:00pm 11.7 8.4 11.7 100 0.0 E 20 32 11 17 - - 0.0
28/02:30pm 11.3 8.5 11.3 100 0.0 E 17 24 9 13 - - 0.0
28/02:00pm 11.2 8.7 11.2 100 0.0 ESE 15 22 8 12 - - 0.0
28/01:30pm 11.8 8.2 11.8 100 0.0 ESE 22 32 12 17 - - 0.0
28/01:00pm 10.5 7.5 10.5 100 0.0 ESE 17 26 9 14 - - 0.0
28/12:30pm 10.6 8.0 10.6 100 0.0 ESE 15 24 8 13 - - 0.0
28/12:00pm 9.7 6.1 9.7 100 0.0 ESE 19 30 10 16 - - 0.0
28/11:30am 9.1 5.3 9.1 100 0.0 ESE 19 26 10 14 - - 0.0
28/11:00am 9.1 4.7 9.1 100 0.0 ESE 22 35 12 19 - - 0.0
28/10:30am 8.5 3.6 8.5 100 0.0 ESE 24 33 13 18 - - 0.0
28/10:00am 8.2 3.2 8.2 100 0.0 ESE 24 39 13 21 - - 0.0
28/09:30am 8.0 2.2 8.0 100 0.0 ESE 28 41 15 22 - - 0.0
28/09:00am 7.7 2.2 7.7 100 0.0 ESE 26 43 14 23 - - 5.6
28/08:30am 7.7 1.5 7.7 100 0.0 ESE 30 43 16 23 - - 5.6
28/08:00am 7.4 1.9 7.4 100 0.0 ESE 26 37 14 20 - - 5.4
28/07:30am 7.3 1.7 7.3 100 0.0 ESE 26 37 14 20 - - 5.4
28/07:00am 7.2 1.2 7.2 100 0.0 ESE 28 43 15 23 - - 5.4
28/06:30am 7.0 1.7 7.0 100 0.0 ESE 24 33 13 18 - - 5.4
28/06:00am 7.0 1.0 7.0 100 0.0 ESE 28 35 15 19 - - 5.4
28/05:30am 7.0 1.4 7.0 100 0.0 ESE 26 41 14 22 - - 5.4
28/05:00am 7.0 0.6 7.0 100 0.0 ESE 30 41 16 22 - - 5.4
28/04:30am 7.1 1.9 7.1 100 0.0 ESE 24 32 13 17 - - 5.4
28/04:00am 7.2 2.8 7.2 100 0.0 SE 20 30 11 16 - - 5.4
28/03:30am 7.3 1.7 7.3 100 0.0 ESE 26 43 14 23 - - 5.4
28/03:00am 7.3 2.5 7.3 100 0.0 ESE 22 32 12 17 - - 5.4
28/02:30am 7.3 2.5 7.3 100 0.0 ESE 22 30 12 16 - - 5.4
28/02:00am 7.4 3.2 7.4 100 0.0 ESE 19 28 10 15 - - 5.2
28/01:30am 7.4 3.2 7.4 100 0.0 ESE 19 28 10 15 - - 5.2
28/01:00am 7.4 2.6 7.4 100 0.0 ESE 22 33 12 18 - - 5.2
28/12:30am 7.3 2.5 7.3 100 0.0 SE 22 32 12 17 - - 5.2
28/12:00am 7.3 2.1 7.3 100 0.0 ESE 24 33 13 18 - - 5.2
 
Date/Time
EDT
Temp
°C
App
Temp
°C
Dew
Point
°C
Rel
Hum
%
Delta-T
°C
Wind Press
QNH
hPa
Press
MSL
hPa
Rain since
9am
mm
Dir  Spd
km/h
Gust
km/h
Spd
kts
Gust
kts
27/11:30pm 7.2 2.0 7.2 100 0.0 SE 24 39 13 21 - - 5.2
27/11:00pm 7.2 2.0 7.2 100 0.0 SE 24 35 13 19 - - 5.2
27/10:30pm 7.3 1.0 7.3 100 0.0 SE 30 48 16 26 - - 5.2
27/10:02pm 7.5 1.6 7.5 100 0.0 SE 28 46 15 25 - - 5.2
27/10:00pm 7.4 1.1 7.4 100 0.0 SE 30 46 16 25 - - 5.2
27/09:56pm 7.5 1.6 7.5 100 0.0 SE 28 46 15 25 - - 5.2
27/09:30pm 7.7 1.8 7.7 100 0.0 ESE 28 41 15 22 - - 5.2
27/09:00pm 7.9 3.2 7.9 100 0.0 ESE 22 33 12 18 - - 5.2
27/08:30pm 7.8 1.6 7.8 100 0.0 ESE 30 44 16 24 - - 5.0
27/08:00pm 7.9 2.9 7.9 100 0.0 ESE 24 41 13 22 - - 5.0
27/07:30pm 8.0 1.8 8.0 100 0.0 SE 30 43 16 23 - - 5.0
27/07:12pm 8.2 2.5 8.2 100 0.0 SE 28 46 15 25 - - 4.8
27/07:00pm 8.2 2.8 8.2 100 0.0 SE 26 44 14 24 - - 4.8
27/06:30pm 8.2 2.5 8.2 100 0.0 SE 28 43 15 23 - - 4.6
27/06:07pm 8.3 2.6 8.3 100 0.0 SE 28 46 15 25 - - 4.6
27/06:00pm 8.4 3.1 8.4 100 0.0 SE 26 46 14 25 - - 4.6
27/05:30pm 8.6 3.3 8.6 100 0.0 SE 26 41 14 22 - - 4.4
27/05:00pm 8.7 3.5 8.7 100 0.0 SE 26 43 14 23 - - 4.4
27/04:30pm 8.9 4.5 8.9 100 0.0 SE 22 41 12 22 - - 4.2
27/04:00pm 9.1 4.4 9.1 100 0.0 SE 24 41 13 22 - - 4.2
27/03:30pm 9.2 3.7 9.2 100 0.0 SE 28 41 15 22 - - 4.2
27/03:00pm 9.3 5.0 9.3 100 0.0 SE 22 35 12 19 - - 4.0
27/02:30pm 9.5 4.1 9.5 100 0.0 SE 28 46 15 25 - - 3.2
27/02:00pm 9.7 5.9 9.7 100 0.0 SE 20 32 11 17 - - 2.0
27/01:30pm 9.4 5.1 9.4 100 0.0 SE 22 33 12 18 - - 0.6
27/01:00pm 9.5 4.5 9.5 100 0.0 SE 26 43 14 23 - - 0.0
27/12:30pm 9.6 3.8 9.6 100 0.0 SE 30 44 16 24 - - 0.0
27/12:00pm 9.7 4.4 9.7 100 0.0 SE 28 44 15 24 - - 0.0
27/11:46am 9.2 3.3 9.2 100 0.0 SE 30 56 16 30 - - 0.0
27/11:30am 9.1 4.0 9.1 100 0.0 SE 26 37 14 20 - - 0.0
27/11:00am 8.9 2.4 8.9 100 0.0 SE 33 56 18 30 - - 0.0
27/10:33am 8.6 3.0 8.6 100 0.0 SE 28 48 15 26 - - 0.0
27/10:30am 8.7 3.1 8.7 100 0.0 SE 28 43 15 23 - - 0.0
27/10:10am 8.7 2.1 8.7 100 0.0 SE 33 52 18 28 - - 0.0
27/10:00am 8.5 2.1 8.5 100 0.0 SE 32 50 17 27 - - 0.0
27/09:53am 8.6 2.6 8.6 100 0.0 SE 30 48 16 26 - - 0.0
27/09:30am 8.4 1.8 8.4 100 0.0 SE 33 50 18 27 - - 0.0
27/09:13am 8.2 2.1 8.2 100 0.0 SE 30 50 16 27 - - 0.0
27/09:00am 8.1 2.0 8.1 100 0.0 SE 30 41 16 22 - - 16.0
27/08:34am 8.0 1.8 8.0 100 0.0 SE 30 48 16 26 - - 15.6
27/08:30am 8.1 2.0 8.1 100 0.0 SE 30 46 16 25 - - 15.6
27/08:00am 8.2 2.8 8.2 100 0.0 SE 26 41 14 22 - - 14.4
27/07:35am 8.1 2.3 8.1 100 0.0 SE 28 46 15 25 - - 14.4
27/07:30am 8.1 2.3 8.1 100 0.0 SE 28 43 15 23 - - 14.4
27/07:01am 8.1 2.3 8.1 100 0.0 SE 28 50 15 27 - - 14.4
27/07:00am 8.1 2.7 8.1 100 0.0 SE 26 50 14 27 - - 14.4
27/06:59am 8.1 2.3 8.1 100 0.0 SE 28 50 15 27 - - 14.4
27/06:30am 8.2 2.1 8.2 100 0.0 SE 30 46 16 25 - - 14.2
27/06:00am 8.2 2.5 8.2 100 0.0 SE 28 46 15 25 - - 13.4
27/05:30am 8.2 3.2 8.2 100 0.0 SE 24 33 13 18 - - 9.8
27/05:00am 8.2 2.1 8.2 100 0.0 SE 30 48 16 26 - - 6.8
27/04:56am 8.2 2.1 8.2 100 0.0 SE 30 48 16 26 - - 6.4
27/04:30am 8.3 2.2 8.3 100 0.0 SE 30 46 16 25 - - 5.0
27/04:24am 8.3 2.6 8.3 100 0.0 SE 28 46 15 25 - - 4.8
27/04:00am 8.3 2.6 8.3 100 0.0 SE 28 43 15 23 - - 4.8
27/03:44am 8.4 2.7 8.4 100 0.0 SE 28 46 15 25 - - 4.6
27/03:30am 8.3 2.2 8.3 100 0.0 SE 30 44 16 24 - - 4.6
27/03:16am 8.3 2.6 8.3 100 0.0 SE 28 50 15 27 - - 4.4
27/03:00am 8.3 3.4 8.3 100 0.0 SE 24 41 13 22 - - 4.2
27/02:31am 8.4 2.7 8.4 100 0.0 SE 28 48 15 26 - - 4.2
27/02:30am 8.4 2.3 8.4 100 0.0 SE 30 48 16 26 - - 4.2
27/02:00am 8.4 1.8 8.4 100 0.0 SE 33 52 18 28 - - 4.2
27/01:34am 8.5 2.1 8.5 100 0.0 SE 32 50 17 27 - - 4.0
27/01:30am 8.5 1.9 8.5 100 0.0 SE 33 48 18 26 - - 4.0
27/01:00am 8.9 2.4 8.9 100 0.0 SE 33 57 18 31 - - 4.0
27/12:42am 9.3 3.8 9.3 100 0.0 SE 28 48 15 26 - - 4.0
27/12:30am 9.3 4.2 9.3 100 0.0 SE 26 39 14 21 - - 4.0
27/12:11am 9.4 4.0 9.4 100 0.0 SE 28 52 15 28 - - 4.0
27/12:00am 9.4 4.4 9.4 100 0.0 SE 26 43 14 23 - - 4.0
 
Date/Time
EDT
Temp
°C
App
Temp
°C
Dew
Point
°C
Rel
Hum
%
Delta-T
°C
Wind Press
QNH
hPa
Press
MSL
hPa
Rain since
9am
mm
Dir  Spd
km/h
Gust
km/h
Spd
kts
Gust
kts
26/11:30pm 9.5 4.1 9.5 100 0.0 SE 28 48 15 26 - - 3.8
26/11:25pm 9.4 4.0 9.4 100 0.0 SE 28 48 15 26 - - 3.8
26/11:00pm 9.6 4.2 9.6 100 0.0 SE 28 43 15 23 - - 3.8
26/10:30pm 9.7 4.4 9.7 100 0.0 SE 28 44 15 24 - - 3.8
26/10:00pm 9.8 4.1 9.8 100 0.0 SE 30 54 16 29 - - 3.8
26/09:30pm 9.9 4.6 9.9 100 0.0 SE 28 46 15 25 - - 3.6
26/09:10pm 9.9 4.2 9.9 100 0.0 SE 30 48 16 26 - - 3.6
26/09:00pm 10.0 4.4 10.0 100 0.0 SE 30 44 16 24 - - 3.6
26/08:30pm 10.2 5.0 10.2 100 0.0 SE 28 43 15 23 - - 3.6
26/08:00pm 10.3 5.1 10.3 100 0.0 SE 28 44 15 24 - - 3.6
26/07:31pm 10.5 5.4 10.5 100 0.0 SE 28 46 15 25 - - 3.6
26/07:30pm 10.5 5.8 10.5 100 0.0 SE 26 46 14 25 - - 3.6
26/07:00pm 10.6 5.5 10.6 100 0.0 SE 28 48 15 26 - - 3.4
26/06:44pm 10.6 5.5 10.6 100 0.0 SE 28 46 15 25 - - 3.4
26/06:30pm 10.8 6.5 10.8 100 0.0 SE 24 43 13 23 - - 3.4
26/06:00pm 11.2 6.6 11.2 100 0.0 SE 26 39 14 21 - - 3.4
26/05:30pm 11.7 7.3 11.7 100 0.0 SE 26 35 14 19 - - 3.4
26/05:00pm 12.2 9.1 12.2 100 0.0 ESE 20 32 11 17 - - 3.4
26/04:30pm 12.6 8.5 12.6 100 0.0 ESE 26 37 14 20 - - 3.4
26/04:00pm 12.9 9.3 12.9 100 0.0 ESE 24 35 13 19 - - 3.4
26/03:30pm 12.8 9.5 12.8 100 0.0 ESE 22 32 12 17 - - 3.4
26/03:00pm 12.4 8.2 12.4 100 0.0 ESE 26 37 14 20 - - 3.4
26/02:30pm 12.1 8.6 12.1 100 0.0 ESE 22 32 12 17 - - 3.0
26/02:00pm 12.1 9.0 12.1 100 0.0 SE 20 35 11 19 - - 2.6

Other formats

Comma delimited format used in spreadsheet applications
http://www.bom.gov.au/fwo/IDN60801/IDN60801.94754.axf

JavaScript Object Notation format (JSON) in row-major order
http://www.bom.gov.au/fwo/IDN60801/IDN60801.94754.json

Data quality

Most of these data are generated automatically and are frequently updated. Quality checks on data are not normally performed. It is possible for incorrect values to appear. Refer to information at About Latest Weather Observations and please check the disclaimer before using these data.